sensor_id;sensor_type;location;lat;lon;timestamp;P1;durP1;ratioP1;P2;durP2;ratioP2
7541;SDS011;3812;50.006;8.230;2022-12-24T00:01:29;13.03;;;2.50;;
7541;SDS011;3812;50.006;8.230;2022-12-24T00:03:56;8.83;;;2.90;;
7541;SDS011;3812;50.006;8.230;2022-12-24T00:06:23;7.50;;;2.50;;
7541;SDS011;3812;50.006;8.230;2022-12-24T00:08:50;11.17;;;3.10;;
7541;SDS011;3812;50.006;8.230;2022-12-24T00:11:19;7.70;;;2.57;;
7541;SDS011;3812;50.006;8.230;2022-12-24T00:13:46;11.53;;;2.47;;
7541;SDS011;3812;50.006;8.230;2022-12-24T00:16:13;8.83;;;2.50;;
7541;SDS011;3812;50.006;8.230;2022-12-24T00:18:40;12.67;;;2.77;;
7541;SDS011;3812;50.006;8.230;2022-12-24T00:21:07;11.97;;;2.57;;
7541;SDS011;3812;50.006;8.230;2022-12-24T00:23:34;7.63;;;3.07;;
7541;SDS011;3812;50.006;8.230;2022-12-24T00:26:01;10.23;;;2.53;;
7541;SDS011;3812;50.006;8.230;2022-12-24T00:28:29;11.10;;;2.43;;
7541;SDS011;3812;50.006;8.230;2022-12-24T00:30:56;8.10;;;2.70;;
7541;SDS011;3812;50.006;8.230;2022-12-24T00:33:22;9.13;;;2.60;;
7541;SDS011;3812;50.006;8.230;2022-12-24T00:35:50;9.70;;;2.50;;
7541;SDS011;3812;50.006;8.230;2022-12-24T00:38:18;9.80;;;2.40;;
7541;SDS011;3812;50.006;8.230;2022-12-24T00:40:44;6.60;;;2.83;;
7541;SDS011;3812;50.006;8.230;2022-12-24T00:43:11;14.87;;;3.23;;
7541;SDS011;3812;50.006;8.230;2022-12-24T00:45:40;8.83;;;2.37;;
7541;SDS011;3812;50.006;8.230;2022-12-24T00:48:06;12.40;;;2.70;;
7541;SDS011;3812;50.006;8.230;2022-12-24T00:50:33;8.07;;;2.60;;
7541;SDS011;3812;50.006;8.230;2022-12-24T00:53:00;9.23;;;2.60;;
7541;SDS011;3812;50.006;8.230;2022-12-24T00:55:27;11.00;;;3.13;;
7541;SDS011;3812;50.006;8.230;2022-12-24T00:57:54;8.97;;;2.37;;
7541;SDS011;3812;50.006;8.230;2022-12-24T01:00:21;10.97;;;2.73;;
7541;SDS011;3812;50.006;8.230;2022-12-24T01:02:49;11.13;;;2.30;;
7541;SDS011;3812;50.006;8.230;2022-12-24T01:05:16;10.77;;;2.67;;
7541;SDS011;3812;50.006;8.230;2022-12-24T01:07:45;11.93;;;2.77;;
7541;SDS011;3812;50.006;8.230;2022-12-24T01:10:13;5.67;;;2.20;;
7541;SDS011;3812;50.006;8.230;2022-12-24T01:12:42;7.33;;;2.17;;
7541;SDS011;3812;50.006;8.230;2022-12-24T01:15:10;7.73;;;2.53;;
7541;SDS011;3812;50.006;8.230;2022-12-24T01:17:38;10.10;;;2.57;;
7541;SDS011;3812;50.006;8.230;2022-12-24T01:20:09;10.40;;;2.67;;
7541;SDS011;3812;50.006;8.230;2022-12-24T01:22:38;8.63;;;2.60;;
7541;SDS011;3812;50.006;8.230;2022-12-24T01:25:05;11.90;;;2.20;;
7541;SDS011;3812;50.006;8.230;2022-12-24T01:27:33;7.63;;;2.40;;
7541;SDS011;3812;50.006;8.230;2022-12-24T01:30:00;7.90;;;2.53;;
7541;SDS011;3812;50.006;8.230;2022-12-24T01:32:27;7.27;;;2.40;;
7541;SDS011;3812;50.006;8.230;2022-12-24T01:34:54;10.43;;;3.03;;
7541;SDS011;3812;50.006;8.230;2022-12-24T01:37:22;10.03;;;2.73;;
7541;SDS011;3812;50.006;8.230;2022-12-24T01:39:49;11.27;;;2.50;;
7541;SDS011;3812;50.006;8.230;2022-12-24T01:42:36;8.93;;;2.93;;
7541;SDS011;3812;50.006;8.230;2022-12-24T01:45:34;13.70;;;3.70;;
7541;SDS011;3812;50.006;8.230;2022-12-24T01:48:08;12.10;;;2.67;;
7541;SDS011;3812;50.006;8.230;2022-12-24T01:50:48;11.27;;;3.30;;
7541;SDS011;3812;50.006;8.230;2022-12-24T01:53:20;11.23;;;2.60;;
7541;SDS011;3812;50.006;8.230;2022-12-24T01:55:47;11.53;;;2.83;;
7541;SDS011;3812;50.006;8.230;2022-12-24T01:58:15;12.53;;;3.43;;
7541;SDS011;3812;50.006;8.230;2022-12-24T02:00:44;14.63;;;3.20;;
7541;SDS011;3812;50.006;8.230;2022-12-24T02:03:11;11.27;;;3.27;;
7541;SDS011;3812;50.006;8.230;2022-12-24T02:05:41;11.53;;;3.10;;
7541;SDS011;3812;50.006;8.230;2022-12-24T02:08:12;8.00;;;2.47;;
7541;SDS011;3812;50.006;8.230;2022-12-24T02:10:42;13.43;;;2.50;;
7541;SDS011;3812;50.006;8.230;2022-12-24T02:13:09;9.90;;;2.77;;
7541;SDS011;3812;50.006;8.230;2022-12-24T02:15:39;8.43;;;3.10;;
7541;SDS011;3812;50.006;8.230;2022-12-24T02:18:19;14.27;;;4.03;;
7541;SDS011;3812;50.006;8.230;2022-12-24T02:20:55;11.23;;;2.90;;
7541;SDS011;3812;50.006;8.230;2022-12-24T02:26:55;12.00;;;2.87;;
7541;SDS011;3812;50.006;8.230;2022-12-24T02:29:46;10.93;;;3.00;;
7541;SDS011;3812;50.006;8.230;2022-12-24T02:32:25;10.97;;;2.53;;
7541;SDS011;3812;50.006;8.230;2022-12-24T02:35:00;14.60;;;2.70;;
7541;SDS011;3812;50.006;8.230;2022-12-24T02:37:35;12.57;;;2.83;;
7541;SDS011;3812;50.006;8.230;2022-12-24T02:40:06;9.07;;;2.73;;
7541;SDS011;3812;50.006;8.230;2022-12-24T02:42:38;13.20;;;3.03;;
7541;SDS011;3812;50.006;8.230;2022-12-24T02:45:09;10.33;;;2.83;;
7541;SDS011;3812;50.006;8.230;2022-12-24T02:47:38;9.80;;;2.73;;
7541;SDS011;3812;50.006;8.230;2022-12-24T02:50:09;8.17;;;3.10;;
7541;SDS011;3812;50.006;8.230;2022-12-24T02:52:38;10.53;;;2.70;;
7541;SDS011;3812;50.006;8.230;2022-12-24T02:55:09;10.00;;;2.50;;
7541;SDS011;3812;50.006;8.230;2022-12-24T02:57:44;10.60;;;2.80;;
7541;SDS011;3812;50.006;8.230;2022-12-24T03:00:21;9.33;;;2.87;;
7541;SDS011;3812;50.006;8.230;2022-12-24T03:02:52;7.93;;;3.03;;
7541;SDS011;3812;50.006;8.230;2022-12-24T03:05:34;7.87;;;2.20;;
7541;SDS011;3812;50.006;8.230;2022-12-24T03:08:10;10.77;;;2.70;;
7541;SDS011;3812;50.006;8.230;2022-12-24T03:10:44;12.30;;;2.30;;
7541;SDS011;3812;50.006;8.230;2022-12-24T03:13:17;6.93;;;2.27;;
7541;SDS011;3812;50.006;8.230;2022-12-24T03:15:47;6.33;;;2.10;;
7541;SDS011;3812;50.006;8.230;2022-12-24T03:18:17;12.40;;;2.60;;
7541;SDS011;3812;50.006;8.230;2022-12-24T03:20:47;6.87;;;2.07;;
7541;SDS011;3812;50.006;8.230;2022-12-24T03:23:19;9.00;;;2.30;;
7541;SDS011;3812;50.006;8.230;2022-12-24T03:25:46;7.70;;;2.13;;
7541;SDS011;3812;50.006;8.230;2022-12-24T03:28:15;6.57;;;2.03;;
7541;SDS011;3812;50.006;8.230;2022-12-24T03:30:45;8.77;;;2.80;;
7541;SDS011;3812;50.006;8.230;2022-12-24T03:33:14;10.10;;;2.50;;
7541;SDS011;3812;50.006;8.230;2022-12-24T03:35:41;10.10;;;2.30;;
7541;SDS011;3812;50.006;8.230;2022-12-24T03:38:08;12.90;;;2.60;;
7541;SDS011;3812;50.006;8.230;2022-12-24T03:40:35;8.43;;;2.30;;
7541;SDS011;3812;50.006;8.230;2022-12-24T03:43:02;9.27;;;2.30;;
7541;SDS011;3812;50.006;8.230;2022-12-24T03:45:29;11.23;;;2.47;;
7541;SDS011;3812;50.006;8.230;2022-12-24T03:47:57;10.33;;;2.40;;
7541;SDS011;3812;50.006;8.230;2022-12-24T03:50:24;9.37;;;2.57;;
7541;SDS011;3812;50.006;8.230;2022-12-24T03:52:51;10.53;;;3.20;;
7541;SDS011;3812;50.006;8.230;2022-12-24T03:55:19;12.70;;;2.33;;
7541;SDS011;3812;50.006;8.230;2022-12-24T03:57:46;15.07;;;2.97;;
7541;SDS011;3812;50.006;8.230;2022-12-24T04:00:13;8.77;;;2.37;;
7541;SDS011;3812;50.006;8.230;2022-12-24T04:02:41;9.73;;;3.13;;
7541;SDS011;3812;50.006;8.230;2022-12-24T04:05:11;11.00;;;3.10;;
7541;SDS011;3812;50.006;8.230;2022-12-24T04:07:39;11.67;;;3.10;;
7541;SDS011;3812;50.006;8.230;2022-12-24T04:10:07;8.43;;;2.87;;
7541;SDS011;3812;50.006;8.230;2022-12-24T04:12:35;10.83;;;3.43;;
7541;SDS011;3812;50.006;8.230;2022-12-24T04:15:02;9.57;;;2.70;;
7541;SDS011;3812;50.006;8.230;2022-12-24T04:17:29;8.97;;;2.73;;
7541;SDS011;3812;50.006;8.230;2022-12-24T04:19:56;13.23;;;3.03;;
7541;SDS011;3812;50.006;8.230;2022-12-24T04:22:25;11.67;;;3.33;;
7541;SDS011;3812;50.006;8.230;2022-12-24T04:24:51;9.63;;;2.53;;
7541;SDS011;3812;50.006;8.230;2022-12-24T04:27:18;10.07;;;3.00;;
7541;SDS011;3812;50.006;8.230;2022-12-24T04:29:45;13.90;;;3.13;;
7541;SDS011;3812;50.006;8.230;2022-12-24T04:32:13;9.60;;;2.63;;
7541;SDS011;3812;50.006;8.230;2022-12-24T04:34:40;8.90;;;2.47;;
7541;SDS011;3812;50.006;8.230;2022-12-24T04:37:07;7.37;;;2.50;;
7541;SDS011;3812;50.006;8.230;2022-12-24T04:39:35;8.87;;;2.67;;
7541;SDS011;3812;50.006;8.230;2022-12-24T04:42:02;11.23;;;2.83;;
7541;SDS011;3812;50.006;8.230;2022-12-24T04:44:29;11.20;;;3.03;;
7541;SDS011;3812;50.006;8.230;2022-12-24T04:46:56;12.47;;;2.63;;
7541;SDS011;3812;50.006;8.230;2022-12-24T04:49:23;13.23;;;2.73;;
7541;SDS011;3812;50.006;8.230;2022-12-24T04:51:50;10.13;;;3.00;;
7541;SDS011;3812;50.006;8.230;2022-12-24T04:54:17;7.40;;;2.53;;
7541;SDS011;3812;50.006;8.230;2022-12-24T04:56:45;8.53;;;3.00;;
7541;SDS011;3812;50.006;8.230;2022-12-24T04:59:12;9.73;;;2.77;;
7541;SDS011;3812;50.006;8.230;2022-12-24T05:01:39;12.43;;;3.23;;
7541;SDS011;3812;50.006;8.230;2022-12-24T05:04:07;12.37;;;3.20;;
7541;SDS011;3812;50.006;8.230;2022-12-24T05:06:35;13.20;;;2.73;;
7541;SDS011;3812;50.006;8.230;2022-12-24T05:09:02;7.27;;;2.37;;
7541;SDS011;3812;50.006;8.230;2022-12-24T05:11:29;7.70;;;2.90;;
7541;SDS011;3812;50.006;8.230;2022-12-24T05:13:58;12.43;;;2.60;;
7541;SDS011;3812;50.006;8.230;2022-12-24T05:16:25;7.63;;;2.83;;
7541;SDS011;3812;50.006;8.230;2022-12-24T05:18:52;7.43;;;2.57;;
7541;SDS011;3812;50.006;8.230;2022-12-24T05:21:20;9.87;;;3.07;;
7541;SDS011;3812;50.006;8.230;2022-12-24T05:23:48;8.37;;;2.53;;
7541;SDS011;3812;50.006;8.230;2022-12-24T05:26:33;10.80;;;2.63;;
7541;SDS011;3812;50.006;8.230;2022-12-24T05:29:04;13.47;;;3.43;;
7541;SDS011;3812;50.006;8.230;2022-12-24T05:31:33;9.10;;;3.23;;
7541;SDS011;3812;50.006;8.230;2022-12-24T05:34:00;6.03;;;2.57;;
7541;SDS011;3812;50.006;8.230;2022-12-24T05:36:27;8.90;;;2.33;;
7541;SDS011;3812;50.006;8.230;2022-12-24T05:38:54;10.83;;;2.80;;
7541;SDS011;3812;50.006;8.230;2022-12-24T05:41:21;8.53;;;2.90;;
7541;SDS011;3812;50.006;8.230;2022-12-24T05:43:48;9.27;;;2.80;;
7541;SDS011;3812;50.006;8.230;2022-12-24T05:46:18;11.53;;;3.30;;
7541;SDS011;3812;50.006;8.230;2022-12-24T05:48:47;7.80;;;3.10;;
7541;SDS011;3812;50.006;8.230;2022-12-24T05:51:15;11.03;;;2.80;;
7541;SDS011;3812;50.006;8.230;2022-12-24T05:53:44;11.07;;;2.90;;
7541;SDS011;3812;50.006;8.230;2022-12-24T05:56:12;11.17;;;2.83;;
7541;SDS011;3812;50.006;8.230;2022-12-24T05:58:40;10.07;;;2.43;;
7541;SDS011;3812;50.006;8.230;2022-12-24T06:01:09;10.50;;;2.60;;
7541;SDS011;3812;50.006;8.230;2022-12-24T06:03:38;13.33;;;3.07;;
7541;SDS011;3812;50.006;8.230;2022-12-24T06:06:06;9.83;;;3.13;;
7541;SDS011;3812;50.006;8.230;2022-12-24T06:08:35;11.97;;;2.53;;
7541;SDS011;3812;50.006;8.230;2022-12-24T06:11:03;13.43;;;2.90;;
7541;SDS011;3812;50.006;8.230;2022-12-24T06:13:32;8.93;;;2.60;;
7541;SDS011;3812;50.006;8.230;2022-12-24T06:16:00;14.03;;;3.00;;
7541;SDS011;3812;50.006;8.230;2022-12-24T06:18:28;7.90;;;2.83;;
7541;SDS011;3812;50.006;8.230;2022-12-24T06:20:58;10.73;;;2.90;;
7541;SDS011;3812;50.006;8.230;2022-12-24T06:23:25;9.27;;;2.97;;
7541;SDS011;3812;50.006;8.230;2022-12-24T06:25:55;16.20;;;3.73;;
7541;SDS011;3812;50.006;8.230;2022-12-24T06:28:22;12.70;;;3.10;;
7541;SDS011;3812;50.006;8.230;2022-12-24T06:30:49;12.73;;;3.00;;
7541;SDS011;3812;50.006;8.230;2022-12-24T06:33:17;11.23;;;3.13;;
7541;SDS011;3812;50.006;8.230;2022-12-24T06:35:44;12.17;;;3.13;;
7541;SDS011;3812;50.006;8.230;2022-12-24T06:38:13;10.13;;;2.90;;
7541;SDS011;3812;50.006;8.230;2022-12-24T06:40:41;12.43;;;2.97;;
7541;SDS011;3812;50.006;8.230;2022-12-24T06:43:09;15.77;;;3.20;;
7541;SDS011;3812;50.006;8.230;2022-12-24T06:45:36;10.83;;;3.10;;
7541;SDS011;3812;50.006;8.230;2022-12-24T06:48:03;10.17;;;2.90;;
7541;SDS011;3812;50.006;8.230;2022-12-24T06:50:31;13.63;;;3.67;;
7541;SDS011;3812;50.006;8.230;2022-12-24T06:52:59;11.40;;;3.30;;
7541;SDS011;3812;50.006;8.230;2022-12-24T06:55:27;16.10;;;3.30;;
7541;SDS011;3812;50.006;8.230;2022-12-24T06:57:54;8.87;;;3.10;;
7541;SDS011;3812;50.006;8.230;2022-12-24T07:00:21;13.77;;;2.97;;
7541;SDS011;3812;50.006;8.230;2022-12-24T07:02:48;15.33;;;3.60;;
7541;SDS011;3812;50.006;8.230;2022-12-24T07:05:15;11.43;;;3.50;;
7541;SDS011;3812;50.006;8.230;2022-12-24T07:07:43;10.77;;;2.80;;
7541;SDS011;3812;50.006;8.230;2022-12-24T07:10:10;13.10;;;3.17;;
7541;SDS011;3812;50.006;8.230;2022-12-24T07:12:40;14.83;;;3.27;;
7541;SDS011;3812;50.006;8.230;2022-12-24T07:15:08;19.33;;;3.30;;
7541;SDS011;3812;50.006;8.230;2022-12-24T07:17:36;21.10;;;3.70;;
7541;SDS011;3812;50.006;8.230;2022-12-24T07:20:04;14.87;;;3.57;;
7541;SDS011;3812;50.006;8.230;2022-12-24T07:22:32;15.77;;;3.70;;
7541;SDS011;3812;50.006;8.230;2022-12-24T07:24:59;16.13;;;3.80;;
7541;SDS011;3812;50.006;8.230;2022-12-24T07:27:26;12.67;;;3.83;;
7541;SDS011;3812;50.006;8.230;2022-12-24T07:29:54;16.20;;;3.60;;
7541;SDS011;3812;50.006;8.230;2022-12-24T07:32:21;12.60;;;3.57;;
7541;SDS011;3812;50.006;8.230;2022-12-24T07:34:48;15.70;;;3.70;;
7541;SDS011;3812;50.006;8.230;2022-12-24T07:37:15;17.03;;;3.77;;
7541;SDS011;3812;50.006;8.230;2022-12-24T07:39:42;17.77;;;4.03;;
7541;SDS011;3812;50.006;8.230;2022-12-24T07:42:09;14.57;;;3.67;;
7541;SDS011;3812;50.006;8.230;2022-12-24T07:44:36;12.43;;;3.70;;
7541;SDS011;3812;50.006;8.230;2022-12-24T07:47:04;15.33;;;4.13;;
7541;SDS011;3812;50.006;8.230;2022-12-24T07:49:31;19.00;;;3.43;;
7541;SDS011;3812;50.006;8.230;2022-12-24T07:51:59;14.67;;;3.93;;
7541;SDS011;3812;50.006;8.230;2022-12-24T07:54:25;12.10;;;3.23;;
7541;SDS011;3812;50.006;8.230;2022-12-24T07:56:52;9.03;;;3.07;;
7541;SDS011;3812;50.006;8.230;2022-12-24T07:59:20;15.20;;;4.07;;
7541;SDS011;3812;50.006;8.230;2022-12-24T08:01:47;16.63;;;3.50;;
7541;SDS011;3812;50.006;8.230;2022-12-24T08:04:15;18.53;;;3.57;;
7541;SDS011;3812;50.006;8.230;2022-12-24T08:06:42;19.23;;;4.13;;
7541;SDS011;3812;50.006;8.230;2022-12-24T08:09:09;17.23;;;4.47;;
7541;SDS011;3812;50.006;8.230;2022-12-24T08:11:35;13.47;;;3.67;;
7541;SDS011;3812;50.006;8.230;2022-12-24T08:14:02;10.00;;;3.23;;
7541;SDS011;3812;50.006;8.230;2022-12-24T08:16:29;13.97;;;3.60;;
7541;SDS011;3812;50.006;8.230;2022-12-24T08:18:56;21.13;;;3.43;;
7541;SDS011;3812;50.006;8.230;2022-12-24T08:21:24;16.60;;;4.30;;
7541;SDS011;3812;50.006;8.230;2022-12-24T08:23:51;22.30;;;4.17;;
7541;SDS011;3812;50.006;8.230;2022-12-24T08:26:18;20.37;;;4.03;;
7541;SDS011;3812;50.006;8.230;2022-12-24T08:28:45;17.67;;;4.40;;
7541;SDS011;3812;50.006;8.230;2022-12-24T08:31:12;15.83;;;4.00;;
7541;SDS011;3812;50.006;8.230;2022-12-24T08:33:40;22.67;;;5.60;;
7541;SDS011;3812;50.006;8.230;2022-12-24T08:36:07;21.07;;;4.13;;
7541;SDS011;3812;50.006;8.230;2022-12-24T08:38:35;17.83;;;4.60;;
7541;SDS011;3812;50.006;8.230;2022-12-24T08:41:02;17.97;;;3.80;;
7541;SDS011;3812;50.006;8.230;2022-12-24T08:43:30;15.53;;;4.00;;
7541;SDS011;3812;50.006;8.230;2022-12-24T08:46:00;18.43;;;4.20;;
7541;SDS011;3812;50.006;8.230;2022-12-24T08:48:28;17.10;;;4.13;;
7541;SDS011;3812;50.006;8.230;2022-12-24T08:50:55;20.57;;;4.93;;
7541;SDS011;3812;50.006;8.230;2022-12-24T08:53:22;18.33;;;4.30;;
7541;SDS011;3812;50.006;8.230;2022-12-24T08:55:51;20.37;;;4.53;;
7541;SDS011;3812;50.006;8.230;2022-12-24T08:58:18;16.13;;;4.60;;
7541;SDS011;3812;50.006;8.230;2022-12-24T09:00:45;17.73;;;4.40;;
7541;SDS011;3812;50.006;8.230;2022-12-24T09:03:12;9.27;;;4.40;;
7541;SDS011;3812;50.006;8.230;2022-12-24T09:05:41;17.83;;;4.70;;
7541;SDS011;3812;50.006;8.230;2022-12-24T09:08:07;18.47;;;5.27;;
7541;SDS011;3812;50.006;8.230;2022-12-24T09:10:34;21.97;;;5.07;;
7541;SDS011;3812;50.006;8.230;2022-12-24T09:13:03;22.57;;;5.20;;
7541;SDS011;3812;50.006;8.230;2022-12-24T09:15:30;20.20;;;4.83;;
7541;SDS011;3812;50.006;8.230;2022-12-24T09:17:57;23.23;;;5.73;;
7541;SDS011;3812;50.006;8.230;2022-12-24T09:20:25;21.07;;;5.33;;
7541;SDS011;3812;50.006;8.230;2022-12-24T09:22:52;15.10;;;4.67;;
7541;SDS011;3812;50.006;8.230;2022-12-24T09:25:19;15.87;;;4.10;;
7541;SDS011;3812;50.006;8.230;2022-12-24T09:27:45;14.67;;;4.07;;
7541;SDS011;3812;50.006;8.230;2022-12-24T09:30:14;19.20;;;5.20;;
7541;SDS011;3812;50.006;8.230;2022-12-24T09:32:41;17.47;;;4.10;;
7541;SDS011;3812;50.006;8.230;2022-12-24T09:35:08;16.23;;;4.60;;
7541;SDS011;3812;50.006;8.230;2022-12-24T09:37:36;20.53;;;5.10;;
7541;SDS011;3812;50.006;8.230;2022-12-24T09:40:03;17.10;;;3.93;;
7541;SDS011;3812;50.006;8.230;2022-12-24T09:42:34;23.07;;;5.10;;
7541;SDS011;3812;50.006;8.230;2022-12-24T09:45:11;16.10;;;4.27;;
7541;SDS011;3812;50.006;8.230;2022-12-24T09:47:45;16.57;;;4.37;;
7541;SDS011;3812;50.006;8.230;2022-12-24T09:50:25;16.10;;;4.47;;
7541;SDS011;3812;50.006;8.230;2022-12-24T09:52:59;19.97;;;4.73;;
7541;SDS011;3812;50.006;8.230;2022-12-24T09:55:29;16.07;;;4.50;;
7541;SDS011;3812;50.006;8.230;2022-12-24T09:57:59;17.33;;;4.23;;
7541;SDS011;3812;50.006;8.230;2022-12-24T10:00:32;20.13;;;4.67;;
7541;SDS011;3812;50.006;8.230;2022-12-24T10:03:07;22.30;;;4.80;;
7541;SDS011;3812;50.006;8.230;2022-12-24T10:05:39;16.10;;;4.10;;
7541;SDS011;3812;50.006;8.230;2022-12-24T10:08:12;16.63;;;4.60;;
7541;SDS011;3812;50.006;8.230;2022-12-24T10:10:49;20.23;;;4.40;;
7541;SDS011;3812;50.006;8.230;2022-12-24T10:13:22;17.97;;;3.97;;
7541;SDS011;3812;50.006;8.230;2022-12-24T10:15:59;22.43;;;4.20;;
7541;SDS011;3812;50.006;8.230;2022-12-24T10:18:34;21.70;;;5.03;;
7541;SDS011;3812;50.006;8.230;2022-12-24T10:21:09;13.43;;;4.30;;
7541;SDS011;3812;50.006;8.230;2022-12-24T10:23:40;17.77;;;4.30;;
7541;SDS011;3812;50.006;8.230;2022-12-24T10:26:14;15.57;;;4.20;;
7541;SDS011;3812;50.006;8.230;2022-12-24T10:28:49;15.33;;;3.87;;
7541;SDS011;3812;50.006;8.230;2022-12-24T10:31:23;14.37;;;3.30;;
7541;SDS011;3812;50.006;8.230;2022-12-24T10:33:53;17.67;;;4.10;;
7541;SDS011;3812;50.006;8.230;2022-12-24T10:36:23;15.63;;;3.53;;
7541;SDS011;3812;50.006;8.230;2022-12-24T10:38:53;12.20;;;3.80;;
7541;SDS011;3812;50.006;8.230;2022-12-24T10:41:21;16.97;;;4.20;;
7541;SDS011;3812;50.006;8.230;2022-12-24T10:43:51;15.13;;;4.20;;
7541;SDS011;3812;50.006;8.230;2022-12-24T10:46:20;19.57;;;3.93;;
7541;SDS011;3812;50.006;8.230;2022-12-24T10:49:02;17.40;;;4.00;;
7541;SDS011;3812;50.006;8.230;2022-12-24T10:51:33;14.83;;;3.67;;
7541;SDS011;3812;50.006;8.230;2022-12-24T10:54:05;12.57;;;3.47;;
7541;SDS011;3812;50.006;8.230;2022-12-24T10:56:37;14.93;;;3.90;;
7541;SDS011;3812;50.006;8.230;2022-12-24T10:59:08;17.57;;;4.30;;
7541;SDS011;3812;50.006;8.230;2022-12-24T11:01:50;13.50;;;4.23;;
7541;SDS011;3812;50.006;8.230;2022-12-24T11:04:18;10.87;;;4.00;;
7541;SDS011;3812;50.006;8.230;2022-12-24T11:06:53;13.97;;;3.73;;
7541;SDS011;3812;50.006;8.230;2022-12-24T11:09:22;12.27;;;3.70;;
7541;SDS011;3812;50.006;8.230;2022-12-24T11:16:04;13.70;;;3.10;;
7541;SDS011;3812;50.006;8.230;2022-12-24T11:18:35;11.57;;;3.60;;
7541;SDS011;3812;50.006;8.230;2022-12-24T11:21:10;7.90;;;3.10;;
7541;SDS011;3812;50.006;8.230;2022-12-24T11:23:38;13.00;;;3.90;;
7541;SDS011;3812;50.006;8.230;2022-12-24T11:26:05;14.97;;;3.73;;
7541;SDS011;3812;50.006;8.230;2022-12-24T11:28:32;16.17;;;3.70;;
7541;SDS011;3812;50.006;8.230;2022-12-24T11:31:02;11.10;;;3.37;;
7541;SDS011;3812;50.006;8.230;2022-12-24T11:33:30;15.77;;;3.47;;
7541;SDS011;3812;50.006;8.230;2022-12-24T11:36:12;10.27;;;3.33;;
7541;SDS011;3812;50.006;8.230;2022-12-24T11:38:39;16.83;;;3.77;;
7541;SDS011;3812;50.006;8.230;2022-12-24T11:41:07;14.10;;;3.40;;
7541;SDS011;3812;50.006;8.230;2022-12-24T11:43:38;14.73;;;3.77;;
7541;SDS011;3812;50.006;8.230;2022-12-24T11:46:11;15.40;;;3.70;;
7541;SDS011;3812;50.006;8.230;2022-12-24T11:48:41;14.70;;;3.63;;
7541;SDS011;3812;50.006;8.230;2022-12-24T11:51:19;15.40;;;4.33;;
7541;SDS011;3812;50.006;8.230;2022-12-24T11:53:49;13.27;;;3.23;;
7541;SDS011;3812;50.006;8.230;2022-12-24T11:56:23;13.77;;;3.70;;
7541;SDS011;3812;50.006;8.230;2022-12-24T11:58:58;16.13;;;3.50;;
7541;SDS011;3812;50.006;8.230;2022-12-24T12:01:29;14.37;;;3.97;;
7541;SDS011;3812;50.006;8.230;2022-12-24T12:03:59;18.60;;;4.07;;
7541;SDS011;3812;50.006;8.230;2022-12-24T12:06:31;14.63;;;3.40;;
7541;SDS011;3812;50.006;8.230;2022-12-24T12:09:04;10.80;;;3.50;;
7541;SDS011;3812;50.006;8.230;2022-12-24T12:11:37;20.83;;;3.70;;
7541;SDS011;3812;50.006;8.230;2022-12-24T12:14:08;14.00;;;3.70;;
7541;SDS011;3812;50.006;8.230;2022-12-24T12:16:39;10.13;;;3.20;;
7541;SDS011;3812;50.006;8.230;2022-12-24T12:19:29;22.33;;;4.80;;
7541;SDS011;3812;50.006;8.230;2022-12-24T12:22:03;10.67;;;3.33;;
7541;SDS011;3812;50.006;8.230;2022-12-24T12:24:33;11.73;;;3.63;;
7541;SDS011;3812;50.006;8.230;2022-12-24T12:27:06;13.73;;;3.67;;
7541;SDS011;3812;50.006;8.230;2022-12-24T12:29:44;9.57;;;2.97;;
7541;SDS011;3812;50.006;8.230;2022-12-24T12:32:20;13.30;;;3.60;;
7541;SDS011;3812;50.006;8.230;2022-12-24T12:34:54;7.20;;;2.90;;
7541;SDS011;3812;50.006;8.230;2022-12-24T12:37:29;11.23;;;3.03;;
7541;SDS011;3812;50.006;8.230;2022-12-24T12:40:00;10.83;;;3.00;;
7541;SDS011;3812;50.006;8.230;2022-12-24T12:42:28;12.60;;;3.50;;
7541;SDS011;3812;50.006;8.230;2022-12-24T12:45:00;10.97;;;3.00;;
7541;SDS011;3812;50.006;8.230;2022-12-24T12:47:39;14.50;;;3.50;;
7541;SDS011;3812;50.006;8.230;2022-12-24T12:50:18;11.63;;;2.97;;
7541;SDS011;3812;50.006;8.230;2022-12-24T12:52:56;13.67;;;3.23;;
7541;SDS011;3812;50.006;8.230;2022-12-24T12:55:45;15.57;;;3.93;;
7541;SDS011;3812;50.006;8.230;2022-12-24T12:58:19;12.43;;;3.37;;
7541;SDS011;3812;50.006;8.230;2022-12-24T13:00:52;10.77;;;3.13;;
7541;SDS011;3812;50.006;8.230;2022-12-24T13:03:29;14.30;;;3.67;;
7541;SDS011;3812;50.006;8.230;2022-12-24T13:06:17;8.57;;;3.00;;
7541;SDS011;3812;50.006;8.230;2022-12-24T13:09:19;12.20;;;3.63;;
7541;SDS011;3812;50.006;8.230;2022-12-24T13:12:10;17.47;;;4.17;;
7541;SDS011;3812;50.006;8.230;2022-12-24T13:18:04;15.83;;;3.77;;
7541;SDS011;3812;50.006;8.230;2022-12-24T13:20:54;8.93;;;3.57;;
7541;SDS011;3812;50.006;8.230;2022-12-24T13:23:21;10.87;;;3.13;;
7541;SDS011;3812;50.006;8.230;2022-12-24T13:25:52;11.23;;;3.23;;
7541;SDS011;3812;50.006;8.230;2022-12-24T13:28:33;11.93;;;3.60;;
7541;SDS011;3812;50.006;8.230;2022-12-24T13:33:53;10.23;;;3.20;;
7541;SDS011;3812;50.006;8.230;2022-12-24T13:36:22;13.03;;;3.37;;
7541;SDS011;3812;50.006;8.230;2022-12-24T13:38:50;11.73;;;2.87;;
7541;SDS011;3812;50.006;8.230;2022-12-24T13:44:19;13.30;;;4.00;;
7541;SDS011;3812;50.006;8.230;2022-12-24T13:46:49;12.90;;;4.70;;
7541;SDS011;3812;50.006;8.230;2022-12-24T13:49:25;12.40;;;4.47;;
7541;SDS011;3812;50.006;8.230;2022-12-24T13:52:12;17.47;;;4.90;;
7541;SDS011;3812;50.006;8.230;2022-12-24T13:54:44;18.90;;;4.70;;
7541;SDS011;3812;50.006;8.230;2022-12-24T13:57:24;22.83;;;5.13;;
7541;SDS011;3812;50.006;8.230;2022-12-24T13:59:56;16.87;;;4.63;;
7541;SDS011;3812;50.006;8.230;2022-12-24T14:02:26;19.73;;;5.07;;
7541;SDS011;3812;50.006;8.230;2022-12-24T14:04:55;22.17;;;5.20;;
7541;SDS011;3812;50.006;8.230;2022-12-24T14:07:27;17.33;;;5.20;;
7541;SDS011;3812;50.006;8.230;2022-12-24T14:09:55;14.10;;;4.30;;
7541;SDS011;3812;50.006;8.230;2022-12-24T14:12:33;13.77;;;4.23;;
7541;SDS011;3812;50.006;8.230;2022-12-24T14:18:28;15.40;;;4.30;;
7541;SDS011;3812;50.006;8.230;2022-12-24T14:21:02;18.90;;;4.90;;
7541;SDS011;3812;50.006;8.230;2022-12-24T14:23:43;13.60;;;4.07;;
7541;SDS011;3812;50.006;8.230;2022-12-24T14:26:16;17.40;;;4.17;;
7541;SDS011;3812;50.006;8.230;2022-12-24T14:28:48;16.23;;;4.03;;
7541;SDS011;3812;50.006;8.230;2022-12-24T14:31:20;19.67;;;4.63;;
7541;SDS011;3812;50.006;8.230;2022-12-24T14:33:47;19.03;;;4.70;;
7541;SDS011;3812;50.006;8.230;2022-12-24T14:36:14;14.77;;;4.13;;
7541;SDS011;3812;50.006;8.230;2022-12-24T14:38:46;17.57;;;4.43;;
7541;SDS011;3812;50.006;8.230;2022-12-24T14:41:18;10.77;;;3.90;;
7541;SDS011;3812;50.006;8.230;2022-12-24T14:43:57;15.60;;;4.23;;
7541;SDS011;3812;50.006;8.230;2022-12-24T14:46:35;14.83;;;4.80;;
7541;SDS011;3812;50.006;8.230;2022-12-24T14:49:10;13.20;;;4.50;;
7541;SDS011;3812;50.006;8.230;2022-12-24T14:51:47;13.53;;;3.83;;
7541;SDS011;3812;50.006;8.230;2022-12-24T14:54:28;13.70;;;3.97;;
7541;SDS011;3812;50.006;8.230;2022-12-24T14:57:10;14.33;;;3.77;;
7541;SDS011;3812;50.006;8.230;2022-12-24T14:59:46;18.47;;;4.40;;
7541;SDS011;3812;50.006;8.230;2022-12-24T15:02:28;17.03;;;4.40;;
7541;SDS011;3812;50.006;8.230;2022-12-24T15:05:03;13.83;;;4.70;;
7541;SDS011;3812;50.006;8.230;2022-12-24T15:07:34;16.00;;;4.37;;
7541;SDS011;3812;50.006;8.230;2022-12-24T15:10:05;13.77;;;4.13;;
7541;SDS011;3812;50.006;8.230;2022-12-24T15:12:45;12.80;;;4.47;;
7541;SDS011;3812;50.006;8.230;2022-12-24T15:15:14;13.90;;;4.50;;
7541;SDS011;3812;50.006;8.230;2022-12-24T15:17:42;18.07;;;4.50;;
7541;SDS011;3812;50.006;8.230;2022-12-24T15:20:11;12.87;;;5.03;;
7541;SDS011;3812;50.006;8.230;2022-12-24T15:22:41;17.90;;;4.57;;
7541;SDS011;3812;50.006;8.230;2022-12-24T15:25:16;19.37;;;4.63;;
7541;SDS011;3812;50.006;8.230;2022-12-24T15:27:44;12.60;;;3.77;;
7541;SDS011;3812;50.006;8.230;2022-12-24T15:30:13;15.23;;;4.47;;
7541;SDS011;3812;50.006;8.230;2022-12-24T15:32:43;16.57;;;5.47;;
7541;SDS011;3812;50.006;8.230;2022-12-24T15:38:20;34.43;;;16.70;;
7541;SDS011;3812;50.006;8.230;2022-12-24T15:40:50;23.23;;;8.93;;
7541;SDS011;3812;50.006;8.230;2022-12-24T15:43:18;24.77;;;8.13;;
7541;SDS011;3812;50.006;8.230;2022-12-24T15:45:47;13.80;;;5.00;;
7541;SDS011;3812;50.006;8.230;2022-12-24T15:48:16;14.40;;;4.77;;